createdAt,value
2022-09-05T00:02:32.893Z,1.30
2022-09-05T00:05:32.447Z,2.88
2022-09-05T00:08:15.560Z,1.42
2022-09-05T00:11:39.489Z,3.03
2022-09-05T00:13:58.739Z,2.00
2022-09-05T00:16:48.652Z,1.58
2022-09-05T00:24:11.045Z,2.72
2022-09-05T00:24:28.939Z,2.92
2022-09-05T00:28:26.676Z,1.23
2022-09-05T00:31:55.991Z,4.30
2022-09-05T00:34:16.068Z,1.90
2022-09-05T00:36:47.167Z,2.63
2022-09-05T00:39:19.126Z,1.38
2022-09-05T00:41:51.953Z,1.95
2022-09-05T00:44:22.904Z,3.90
2022-09-05T00:47:02.468Z,2.22
2022-09-05T00:49:37.588Z,2.17
2022-09-05T00:52:11.269Z,2.35
2022-09-05T00:55:10.857Z,2.10
2022-09-05T01:00:19.019Z,1.60
2022-09-05T01:03:15.569Z,1.23
2022-09-05T01:06:16.312Z,1.60
2022-09-05T01:09:07.980Z,2.90
2022-09-05T01:11:45.815Z,2.65
2022-09-05T01:14:32.204Z,3.17
2022-09-05T01:17:12.540Z,2.10
2022-09-05T01:19:57.831Z,1.67
2022-09-05T01:22:50.741Z,1.98
2022-09-05T01:25:32.360Z,1.73
2022-09-05T01:29:14.054Z,1.77
2022-09-05T01:31:05.723Z,1.92
2022-09-05T01:33:43.884Z,3.25
2022-09-05T01:36:27.304Z,2.17
2022-09-05T01:40:11.950Z,1.50
2022-09-05T01:41:59.407Z,4.50
2022-09-05T01:44:48.298Z,3.40
2022-09-05T01:47:29.660Z,3.33
2022-09-05T01:50:07.675Z,2.03
2022-09-05T01:53:00.317Z,3.88
2022-09-05T01:56:05.142Z,4.47
2022-09-05T01:58:49.731Z,4.00
2022-09-05T02:01:32.390Z,3.08
2022-09-05T02:04:32.192Z,4.82
2022-09-05T02:07:30.496Z,2.88
2022-09-05T02:10:25.733Z,2.97
2022-09-05T02:13:02.847Z,2.58
2022-09-05T02:15:41.285Z,4.25
2022-09-05T02:20:48.740Z,3.30
2022-09-05T02:23:41.593Z,3.85
2022-09-05T02:26:17.667Z,2.97
2022-09-05T02:28:52.513Z,2.83
2022-09-05T02:31:25.573Z,4.18
2022-09-05T02:34:02.387Z,2.65
2022-09-05T02:36:36.669Z,1.60
2022-09-05T02:43:51.869Z,1.92
2022-09-05T02:45:09.110Z,2.05
2022-09-05T02:45:25.858Z,2.67
2022-09-05T02:48:08.344Z,2.10
2022-09-05T02:56:47.268Z,5.88
2022-09-05T02:57:38.557Z,1.83
2022-09-05T02:57:41.753Z,1.80
2022-09-05T02:59:53.717Z,2.47
2022-09-05T03:02:31.799Z,2.78
2022-09-05T03:05:06.836Z,3.45
2022-09-05T03:08:12.974Z,2.22
2022-09-05T03:11:13.646Z,2.30
2022-09-05T03:14:15.332Z,2.72
2022-09-05T03:17:28.196Z,2.75
2022-09-05T03:20:27.112Z,2.33
2022-09-05T03:23:37.467Z,1.70
2022-09-05T03:26:42.207Z,2.72
2022-09-05T03:29:33.851Z,2.28
2022-09-05T03:32:42.243Z,2.00
2022-09-05T03:35:48.843Z,2.33
2022-09-05T03:38:54.320Z,2.55
2022-09-05T03:41:40.493Z,2.42
2022-09-05T03:44:31.064Z,2.97
2022-09-05T03:47:26.560Z,1.90
2022-09-05T03:57:04.412Z,1.73
2022-09-05T03:57:16.115Z,2.58
2022-09-05T03:57:27.998Z,2.00
2022-09-05T03:59:55.157Z,4.57
2022-09-05T04:07:01.997Z,2.90
2022-09-05T04:08:28.337Z,2.00
2022-09-05T04:08:29.747Z,3.42
2022-09-05T04:11:05.683Z,2.25
2022-09-05T04:13:39.139Z,3.10
2022-09-05T04:16:15.189Z,1.80
2022-09-05T04:18:47.965Z,1.90
2022-09-05T04:21:21.232Z,2.20
2022-09-05T04:24:00.417Z,3.72
2022-09-05T04:26:57.816Z,2.22
2022-09-05T04:29:35.372Z,3.72
2022-09-05T04:32:18.956Z,3.13
2022-09-05T04:35:11.689Z,3.50
2022-09-05T04:37:48.521Z,2.30
2022-09-05T04:40:39.311Z,3.40
2022-09-05T04:43:11.499Z,2.92
2022-09-05T04:45:44.559Z,3.63
2022-09-05T04:48:21.610Z,3.70
2022-09-05T04:51:06.965Z,3.70
2022-09-05T04:53:43.780Z,5.60
2022-09-05T04:56:19.585Z,5.43
2022-09-05T05:01:03.076Z,6.13
2022-09-05T05:06:03.645Z,6.57
2022-09-05T05:06:12.751Z,4.30
2022-09-05T05:11:19.972Z,4.68
2022-09-05T05:17:56.453Z,4.93
2022-09-05T05:18:14.681Z,4.18
2022-09-05T05:18:57.653Z,10.05
2022-09-05T05:21:32.491Z,14.10
2022-09-05T05:24:08.216Z,6.22
2022-09-05T05:26:42.578Z,4.80
2022-09-05T05:29:19.741Z,6.53
2022-09-05T05:31:52.421Z,5.25
2022-09-05T05:34:25.286Z,4.13
2022-09-05T05:37:00.939Z,4.22
2022-09-05T05:39:31.026Z,3.15
2022-09-05T05:42:19.434Z,4.10
2022-09-05T05:44:54.538Z,4.30
2022-09-05T05:47:31.286Z,3.25
2022-09-05T05:50:03.957Z,3.65
2022-09-05T05:52:51.300Z,4.38
2022-09-05T05:56:00.260Z,4.20
2022-09-05T05:58:51.668Z,5.00
2022-09-05T06:01:43.402Z,4.30
2022-09-05T06:04:45.200Z,3.40
2022-09-05T06:07:23.772Z,3.35
2022-09-05T06:14:54.798Z,2.42
2022-09-05T06:15:08.860Z,2.88
2022-09-05T06:17:00.533Z,4.03
2022-09-05T06:21:49.738Z,3.58
2022-09-05T06:23:40.464Z,3.22
2022-09-05T06:26:26.757Z,3.00
2022-09-05T06:29:04.329Z,10.10
2022-09-05T06:31:53.326Z,13.23
2022-09-05T06:34:44.825Z,5.82
2022-09-05T06:37:24.152Z,6.05
2022-09-05T06:40:01.954Z,6.22
2022-09-05T06:42:42.849Z,3.95
2022-09-05T06:45:31.389Z,6.10
2022-09-05T06:48:10.345Z,3.10
2022-09-05T06:51:12.564Z,4.38
2022-09-05T06:54:03.337Z,3.00
2022-09-05T06:56:44.832Z,5.65
2022-09-05T07:00:18.189Z,5.20
2022-09-05T07:03:16.094Z,11.07
2022-09-05T07:05:55.818Z,6.55
2022-09-05T07:08:35.328Z,4.40
2022-09-05T07:11:11.520Z,4.30
2022-09-05T07:13:57.678Z,4.22
2022-09-05T07:16:41.784Z,5.82
2022-09-05T07:19:29.727Z,3.88
2022-09-05T07:22:46.209Z,4.50
2022-09-05T07:25:09.808Z,4.63
2022-09-05T07:28:26.574Z,3.00
2022-09-05T07:30:33.649Z,5.82
2022-09-05T07:33:04.777Z,7.38
2022-09-05T07:35:41.794Z,6.88
2022-09-05T07:38:15.418Z,5.90
2022-09-05T07:40:51.396Z,6.47
2022-09-05T07:43:24.437Z,5.63
2022-09-05T07:46:11.299Z,12.18
2022-09-05T07:48:44.515Z,7.00
2022-09-05T07:56:00.846Z,7.85
2022-09-05T07:57:09.636Z,3.92
2022-09-05T07:59:54.897Z,4.28
2022-09-05T08:02:23.129Z,1.98
2022-09-05T08:04:52.663Z,2.90
2022-09-05T08:10:15.576Z,2.83
2022-09-05T08:13:24.144Z,3.53
2022-09-05T08:16:09.822Z,2.35
2022-09-05T08:18:36.679Z,5.43
2022-09-05T08:21:11.108Z,2.58
2022-09-05T08:23:52.244Z,2.95
2022-09-05T08:26:31.935Z,5.18
2022-09-05T08:29:09.001Z,4.22
2022-09-05T08:31:41.915Z,6.70
2022-09-05T08:34:16.085Z,3.42
2022-09-05T08:36:48.013Z,3.50
2022-09-05T08:39:21.198Z,12.05
2022-09-05T08:42:09.456Z,12.23
2022-09-05T08:46:42.972Z,9.98
2022-09-05T08:47:45.556Z,7.93
2022-09-05T08:50:26.736Z,4.68
2022-09-05T08:53:26.886Z,4.82
2022-09-05T08:56:05.180Z,4.82
2022-09-05T08:59:28.408Z,6.43
2022-09-05T09:02:44.823Z,9.18
2022-09-05T09:05:16.853Z,48.67
2022-09-05T09:07:51.218Z,18.85
2022-09-05T09:10:38.819Z,17.73
2022-09-05T09:13:13.731Z,24.83
2022-09-05T09:15:48.038Z,36.80
2022-09-05T09:18:18.276Z,19.42
2022-09-05T09:20:52.793Z,15.48
2022-09-05T09:23:47.335Z,8.80
2022-09-05T09:26:20.279Z,10.73
2022-09-05T09:29:02.424Z,16.20
2022-09-05T09:31:51.805Z,9.38
2022-09-05T09:34:47.101Z,15.18
2022-09-05T09:37:50.785Z,8.10
2022-09-05T09:40:47.679Z,12.00
2022-09-05T09:43:44.236Z,7.93
2022-09-05T09:46:39.379Z,4.55
2022-09-05T09:49:41.995Z,3.60
2022-09-05T09:52:41.840Z,7.43
2022-09-05T09:55:48.865Z,9.50
2022-09-05T09:58:47.447Z,4.55
2022-09-05T10:01:36.471Z,6.55
2022-09-05T10:10:39.665Z,4.35
2022-09-05T10:10:49.222Z,13.20
2022-09-05T10:14:49.278Z,3.65
2022-09-05T10:17:55.206Z,5.30
2022-09-05T10:20:43.325Z,4.20
2022-09-05T10:23:36.427Z,9.18
2022-09-05T10:26:41.188Z,5.10
2022-09-05T10:29:36.804Z,7.15
2022-09-05T10:35:10.888Z,8.18
2022-09-05T10:35:17.845Z,5.13
2022-09-05T10:37:54.274Z,4.75
2022-09-05T10:40:24.341Z,3.95
2022-09-05T10:43:00.099Z,4.07
2022-09-05T10:45:39.836Z,5.50
2022-09-05T10:48:20.811Z,5.55
2022-09-05T10:50:56.598Z,5.80
2022-09-05T10:53:39.218Z,3.60
2022-09-05T10:56:14.254Z,3.65
2022-09-05T11:02:15.749Z,6.28
2022-09-05T11:02:27.668Z,1.77
2022-09-05T11:07:29.731Z,4.13
2022-09-05T11:10:10.165Z,2.38
2022-09-05T11:13:15.461Z,1.27
2022-09-05T11:16:13.495Z,2.38
2022-09-05T11:18:57.277Z,1.93
2022-09-05T11:22:12.123Z,2.92
2022-09-05T11:24:50.863Z,3.90
2022-09-05T11:27:30.771Z,2.47
2022-09-05T11:30:04.005Z,1.52
2022-09-05T11:39:48.514Z,1.50
2022-09-05T11:39:58.053Z,1.50
2022-09-05T11:40:05.508Z,1.63
2022-09-05T11:42:24.264Z,1.65
2022-09-05T11:45:27.236Z,2.85
2022-09-05T11:48:17.683Z,0.70
2022-09-05T11:51:19.515Z,1.33
2022-09-05T11:54:50.278Z,1.67
2022-09-05T11:57:43.332Z,2.22
2022-09-05T12:00:35.675Z,2.00
2022-09-05T12:03:58.701Z,1.00
2022-09-05T12:06:54.916Z,1.77
2022-09-05T12:09:33.664Z,8.40
2022-09-05T12:12:38.822Z,4.85
2022-09-05T12:15:27.066Z,6.82
2022-09-05T12:18:19.604Z,1.65
2022-09-05T12:20:59.715Z,3.63
2022-09-05T12:24:24.202Z,3.75
2022-09-05T12:27:39.516Z,3.33
2022-09-05T12:29:48.431Z,3.10
2022-09-05T12:35:45.684Z,1.48
2022-09-05T12:36:05.683Z,1.73
2022-09-05T12:40:06.652Z,2.65
2022-09-05T12:41:44.939Z,2.78
2022-09-05T12:44:41.945Z,1.23
2022-09-05T12:47:17.110Z,2.83
2022-09-05T12:50:02.688Z,1.52
2022-09-05T12:52:44.215Z,0.60
2022-09-05T12:55:22.478Z,1.67
2022-09-05T13:01:21.781Z,0.67
2022-09-05T13:03:06.576Z,1.20
2022-09-05T13:04:05.781Z,1.02
2022-09-05T13:06:39.124Z,3.55
2022-09-05T13:09:12.064Z,1.40
2022-09-05T13:14:46.897Z,0.52
2022-09-05T13:15:11.514Z,1.48
2022-09-05T13:17:51.410Z,0.82
2022-09-05T13:20:34.292Z,0.65
2022-09-05T13:23:08.253Z,1.88
2022-09-05T13:25:37.434Z,0.85
2022-09-05T13:28:08.601Z,1.48
2022-09-05T13:35:11.040Z,4.38
2022-09-05T13:38:01.203Z,2.80
2022-09-05T13:38:04.968Z,3.95
2022-09-05T13:39:28.801Z,4.47
2022-09-05T13:42:03.850Z,2.13
2022-09-05T13:44:38.689Z,2.78
2022-09-05T13:47:29.670Z,3.03
2022-09-05T13:50:13.614Z,3.15
2022-09-05T13:52:47.192Z,3.83
2022-09-05T13:55:23.158Z,13.23
2022-09-05T13:57:55.981Z,1.23
2022-09-05T14:00:47.225Z,6.65
2022-09-05T14:03:56.993Z,10.50
2022-09-05T14:06:51.603Z,2.25
2022-09-05T14:20:43.884Z,1.67
2022-09-05T14:23:18.501Z,1.55
2022-09-05T14:25:52.421Z,1.75
2022-09-05T14:28:27.904Z,2.80
2022-09-05T14:36:13.665Z,0.70
2022-09-05T14:37:43.663Z,1.33
2022-09-05T14:38:00.924Z,1.03
2022-09-05T14:40:47.577Z,1.45
2022-09-05T14:43:40.325Z,18.05
2022-09-05T14:46:46.734Z,8.13
2022-09-05T14:49:56.806Z,6.50
2022-09-05T14:52:27.591Z,6.60
2022-09-05T15:02:48.384Z,6.60
2022-09-05T15:02:57.750Z,3.30
2022-09-05T15:06:36.978Z,21.45
2022-09-05T15:12:14.425Z,21.42
2022-09-05T15:12:27.062Z,10.10
2022-09-05T15:15:00.668Z,11.68
2022-09-05T15:17:31.716Z,17.40
2022-09-05T15:20:07.483Z,8.68
2022-09-05T15:22:38.389Z,4.97
2022-09-05T15:25:17.190Z,5.00
2022-09-05T15:27:46.463Z,3.83
2022-09-05T15:30:20.009Z,9.98
2022-09-05T15:32:50.920Z,5.32
2022-09-05T15:35:36.666Z,9.23
2022-09-05T15:38:23.372Z,7.55
2022-09-05T15:41:23.149Z,6.35
2022-09-05T15:44:09.400Z,6.68
2022-09-05T15:46:47.351Z,2.42
2022-09-05T15:49:32.943Z,2.90
2022-09-05T15:52:04.932Z,5.43
2022-09-05T15:54:39.205Z,3.80
2022-09-05T15:57:15.272Z,4.50
2022-09-05T15:59:52.257Z,4.88
2022-09-05T16:02:24.858Z,8.65
2022-09-05T16:10:27.142Z,13.82
2022-09-05T16:10:39.110Z,6.05
2022-09-05T16:11:06.095Z,4.78
2022-09-05T16:13:52.057Z,3.30
2022-09-05T16:21:05.318Z,2.83
2022-09-05T16:23:20.549Z,2.65
2022-09-05T16:23:33.473Z,1.88
2022-09-05T16:25:04.791Z,3.53
2022-09-05T16:27:51.566Z,3.03
2022-09-05T16:30:30.337Z,2.25
2022-09-05T16:35:33.597Z,10.07
2022-09-05T16:38:10.739Z,3.08
2022-09-05T16:40:43.722Z,5.78
2022-09-05T16:43:15.935Z,3.25
2022-09-05T16:45:49.345Z,9.00
2022-09-05T16:48:35.072Z,4.68
2022-09-05T16:51:15.128Z,5.63
2022-09-05T16:53:58.295Z,3.17
2022-09-05T16:56:31.097Z,2.20
2022-09-05T16:59:03.503Z,2.33
2022-09-05T17:01:47.937Z,2.92
2022-09-05T17:04:27.844Z,4.40
2022-09-05T17:06:58.263Z,5.55
2022-09-05T17:09:29.965Z,3.55
2022-09-05T17:12:01.996Z,6.55
2022-09-05T17:14:35.386Z,3.15
2022-09-05T17:17:36.024Z,6.18
2022-09-05T17:20:06.891Z,4.32
2022-09-05T17:26:46.901Z,5.03
2022-09-05T17:29:27.606Z,4.30
2022-09-05T17:29:30.533Z,5.65
2022-09-05T17:31:53.609Z,3.25
2022-09-05T17:34:49.710Z,5.00
2022-09-05T17:37:39.852Z,4.05
2022-09-05T17:40:55.407Z,4.85
2022-09-05T17:43:29.160Z,5.60
2022-09-05T17:46:10.609Z,11.95
2022-09-05T17:49:10.168Z,44.13
2022-09-05T17:52:07.611Z,35.28
2022-09-05T17:54:37.704Z,40.35
2022-09-05T17:57:42.159Z,33.95
2022-09-05T18:00:43.755Z,25.42
2022-09-05T18:03:11.936Z,21.15
2022-09-05T18:06:03.833Z,17.33
2022-09-05T18:08:52.667Z,35.80
2022-09-05T18:14:46.892Z,28.10
2022-09-05T18:17:49.741Z,28.58
2022-09-05T18:20:26.305Z,21.33
2022-09-05T18:23:18.267Z,21.08
2022-09-05T18:26:03.119Z,18.77
2022-09-05T18:28:35.447Z,14.25
2022-09-05T18:31:47.009Z,16.55
2022-09-05T18:34:44.716Z,14.48
2022-09-05T18:37:59.369Z,11.43
2022-09-05T18:40:38.809Z,8.15
2022-09-05T18:43:13.828Z,7.82
2022-09-05T18:45:53.117Z,7.15
2022-09-05T18:48:29.882Z,7.97
2022-09-05T18:51:15.225Z,10.55
2022-09-05T18:53:47.530Z,8.20
2022-09-05T18:56:27.353Z,11.40
2022-09-05T18:59:10.079Z,6.88
2022-09-05T19:01:43.661Z,4.75
2022-09-05T19:04:40.522Z,5.47
2022-09-05T19:07:12.119Z,3.47
2022-09-05T19:09:58.018Z,3.53
2022-09-05T19:12:33.829Z,5.07
2022-09-05T19:15:16.907Z,3.17
2022-09-05T19:17:47.723Z,5.05
2022-09-05T19:20:31.590Z,5.05
2022-09-05T19:23:10.625Z,7.05
2022-09-05T19:25:42.276Z,9.25
2022-09-05T19:36:06.898Z,6.78
2022-09-05T19:36:56.790Z,5.95
2022-09-05T19:37:13.585Z,4.30
2022-09-05T19:37:29.247Z,8.32
2022-09-05T19:46:22.424Z,4.55
2022-09-05T19:47:29.276Z,4.57
2022-09-05T19:47:43.034Z,3.72
2022-09-05T19:50:55.541Z,4.53
2022-09-05T19:53:24.725Z,1.90
2022-09-05T19:55:54.830Z,5.70
2022-09-05T19:58:25.372Z,7.00
2022-09-05T20:01:03.863Z,3.75
2022-09-05T20:03:39.097Z,1.97
2022-09-05T20:06:18.731Z,1.80
2022-09-05T20:09:09.683Z,3.67
2022-09-05T20:11:45.970Z,3.17
2022-09-05T20:14:20.105Z,3.58
2022-09-05T20:16:50.089Z,4.32
2022-09-05T20:19:32.156Z,3.83
2022-09-05T20:22:46.785Z,6.03
2022-09-05T20:24:55.973Z,7.30
2022-09-05T20:27:29.836Z,6.28
2022-09-05T20:30:00.537Z,3.58
2022-09-05T20:32:39.827Z,7.18
2022-09-05T20:36:57.914Z,9.52
2022-09-05T20:43:22.287Z,4.30
2022-09-05T20:43:27.110Z,5.30
2022-09-05T20:43:57.913Z,5.82
2022-09-05T20:50:44.378Z,4.00
2022-09-05T20:54:06.136Z,4.95
2022-09-05T20:54:24.430Z,3.20
2022-09-05T20:55:38.533Z,3.58
2022-09-05T20:58:09.652Z,4.20
2022-09-05T21:01:19.747Z,6.00
2022-09-05T21:03:34.787Z,3.25
2022-09-05T21:06:22.139Z,2.08
2022-09-05T21:08:50.626Z,3.20
2022-09-05T21:11:29.222Z,5.35
2022-09-05T21:14:00.932Z,3.37
2022-09-05T21:16:32.929Z,2.75
2022-09-05T21:19:01.218Z,3.97
2022-09-05T21:21:31.301Z,2.47
2022-09-05T21:24:12.013Z,4.70
2022-09-05T21:26:45.251Z,2.97
2022-09-05T21:29:16.561Z,3.05
2022-09-05T21:31:49.183Z,3.38
2022-09-05T21:34:26.326Z,4.72
2022-09-05T21:37:01.406Z,3.42
2022-09-05T21:39:40.302Z,3.88
2022-09-05T21:43:36.111Z,2.25
2022-09-05T21:47:42.994Z,1.35
2022-09-05T21:47:53.497Z,2.63
2022-09-05T21:50:31.030Z,4.28
2022-09-05T21:54:53.277Z,4.30
2022-09-05T21:59:24.053Z,3.58
2022-09-05T22:01:51.294Z,2.28
2022-09-05T22:04:22.031Z,4.05
2022-09-05T22:06:53.119Z,28.55
2022-09-05T22:09:22.762Z,2.60
2022-09-05T22:11:51.427Z,2.53
2022-09-05T22:14:20.577Z,1.70
2022-09-05T22:16:50.487Z,2.00
2022-09-05T22:19:37.041Z,2.63
2022-09-05T22:22:15.523Z,2.15
2022-09-05T22:24:47.903Z,1.42
2022-09-05T22:27:20.065Z,2.55
2022-09-05T22:29:50.759Z,3.95
2022-09-05T22:32:34.245Z,2.92
2022-09-05T22:35:15.909Z,1.92
2022-09-05T22:38:09.647Z,2.70
2022-09-05T22:40:39.976Z,2.85
2022-09-05T22:43:12.128Z,4.40
2022-09-05T22:45:41.546Z,1.73
2022-09-05T22:50:40.885Z,1.80
2022-09-05T22:53:10.483Z,3.20
2022-09-05T22:55:41.248Z,2.30
2022-09-05T22:58:11.510Z,2.60
2022-09-05T23:00:40.028Z,3.30
2022-09-05T23:03:08.604Z,2.90
2022-09-05T23:05:36.992Z,2.92
2022-09-05T23:08:07.697Z,1.27
2022-09-05T23:10:36.993Z,2.10
2022-09-05T23:13:06.504Z,2.15
2022-09-05T23:18:03.572Z,4.85
2022-09-05T23:20:32.952Z,5.68
2022-09-05T23:23:04.579Z,2.63
2022-09-05T23:25:35.183Z,3.58
2022-09-05T23:28:06.988Z,4.47
2022-09-05T23:30:35.640Z,5.93
2022-09-05T23:33:06.179Z,5.40
2022-09-05T23:35:34.842Z,2.67
2022-09-05T23:38:03.183Z,4.67
2022-09-05T23:40:31.314Z,8.68
2022-09-05T23:43:01.314Z,7.32
2022-09-05T23:45:30.111Z,7.55
2022-09-05T23:47:58.758Z,8.23
2022-09-05T23:50:29.495Z,4.78
2022-09-05T23:52:57.931Z,5.63
2022-09-05T23:55:26.262Z,7.55
2022-09-05T23:57:58.360Z,5.03
